Terminal Aerodrome Forecast
Issued by NWS

Home | Current Version | Previous Version | Text Only | Print | Product List | Glossary On
Versions: 1 2 3 4 5 6 7 8 9 10 11 12 13 14 15 16 17 18
412
FTUS44 KLIX 232336
TAFMSY
TAF
KMSY 232336Z 2400/2424 34007KT P6SM SKC
     FM240600 29004KT P6SM SKC
     FM241000 31008KT P6SM SKC
     FM241600 34014G21KT P6SM SKC=

USA.gov is the U.S. government's official web portal to all federal, state and local government web resources and services.